Observation data for Denver City on 03/24/2019      Previous  Date  Next       Current Mesonet Observations  Soil Data  Daily Summary Page  Observations in Plain Language
KDVS 240500Z 22007KT 09/M06 A3003 RMK A01 T00861061  RH  035%=      5-min Rain = 0
KDVS 240505Z 23007KT 08/M06 A3003 RMK A01 T00821058  RH  037%=      5-min Rain = 0
KDVS 240510Z 23007KT 08/M06 A3003 RMK A01 T00821061  RH  036%=      5-min Rain = 0
KDVS 240515Z 23008KT 08/M06 A3003 RMK A01 T00831062  RH  035%=      5-min Rain = 0
KDVS 240520Z 23008KT 08/M06 A3003 RMK A01 T00801059  RH  037%=      5-min Rain = 0
KDVS 240525Z 23007KT 08/M06 A3003 RMK A01 T00761057  RH  038%=      5-min Rain = 0
KDVS 240530Z 22008KT 08/M05 A3003 RMK A01 T00751054  RH  040%=      5-min Rain = 0
KDVS 240535Z 22007KT 07/M06 A3002 RMK A01 T00731055  RH  040%=      5-min Rain = 0
KDVS 240540Z 22007KT 07/M06 A3002 RMK A01 T00741057  RH  039%=      5-min Rain = 0
KDVS 240545Z 22008KT 08/M06 A3002 RMK A01 T00781062  RH  036%=      5-min Rain = 0
KDVS 240550Z 22007KT 08/M06 A3002 RMK A01 T00811061  RH  036%=      5-min Rain = 0
KDVS 240555Z 22007KT 08/M06 A3002 RMK A01 T00781059  RH  037%=      5-min Rain = 0
KDVS 240600Z 23006KT 08/M06 A3002 RMK A01 T00751057  RH  039%=      5-min Rain = 0
KDVS 240605Z 23007KT 07/M06 A3002 RMK A01 T00711055  RH  040%=      5-min Rain = 0
KDVS 240610Z 22008KT 07/M05 A3002 RMK A01 T00691053  RH  042%=      5-min Rain = 0
KDVS 240615Z 23009KT 07/M06 A3002 RMK A01 T00711055  RH  040%=      5-min Rain = 0
KDVS 240620Z 24009KT 08/M06 A3002 RMK A01 T00751055  RH  039%=      5-min Rain = 0
KDVS 240625Z 24008KT 08/M05 A3002 RMK A01 T00751054  RH  040%=      5-min Rain = 0
KDVS 240630Z 25007KT 07/M05 A3002 RMK A01 T00731054  RH  040%=      5-min Rain = 0
KDVS 240635Z 24010KT 07/M06 A3002 RMK A01 T00741057  RH  039%=      5-min Rain = 0
KDVS 240640Z 24009KT 08/M06 A3002 RMK A01 T00751060  RH  038%=      5-min Rain = 0
KDVS 240645Z 24008KT 08/M06 A3002 RMK A01 T00751061  RH  037%=      5-min Rain = 0
KDVS 240650Z 24010KT 08/M06 A3002 RMK A01 T00761063  RH  037%=      5-min Rain = 0
KDVS 240655Z 24010KT 08/M06 A3001 RMK A01 T00781063  RH  036%=      5-min Rain = 0
KDVS 240700Z 24010KT 08/M06 A3001 RMK A01 T00781063  RH  036%=      5-min Rain = 0
KDVS 240705Z 25009KT 08/M07 A3002 RMK A01 T00801065  RH  035%=      5-min Rain = 0
KDVS 240710Z 25009KT 08/M07 A3002 RMK A01 T00791065  RH  035%=      5-min Rain = 0
KDVS 240715Z 25009KT 08/M06 A3002 RMK A01 T00801064  RH  035%=      5-min Rain = 0
KDVS 240720Z 26008KT 08/M07 A3002 RMK A01 T00791065  RH  035%=      5-min Rain = 0
KDVS 240725Z 26009KT 08/M07 A3002 RMK A01 T00811069  RH  034%=      5-min Rain = 0
KDVS 240730Z 27009KT 08/M07 A3002 RMK A01 T00821071  RH  033%=      5-min Rain = 0
KDVS 240735Z 27009KT 08/M07 A3002 RMK A01 T00811071  RH  033%=      5-min Rain = 0
KDVS 240740Z 26009KT 08/M07 A3002 RMK A01 T00781068  RH  035%=      5-min Rain = 0
KDVS 240745Z 27008KT 08/M07 A3002 RMK A01 T00751067  RH  036%=      5-min Rain = 0
KDVS 240750Z 27007KT 07/M06 A3002 RMK A01 T00721064  RH  037%=      5-min Rain = 0
KDVS 240755Z 26009KT 07/M06 A3002 RMK A01 T00711064  RH  038%=      5-min Rain = 0
KDVS 240800Z 26009KT 07/M06 A3002 RMK A01 T00691062  RH  039%=      5-min Rain = 0
KDVS 240805Z 24008KT 07/M06 A3002 RMK A01 T00651059  RH  041%=      5-min Rain = 0
KDVS 240810Z 24008KT 06/M06 A3002 RMK A01 T00601057  RH  043%=      5-min Rain = 0
KDVS 240815Z 23008KT 06/M06 A3003 RMK A01 T00591056  RH  043%=      5-min Rain = 0
KDVS 240820Z 23010KT 06/M05 A3003 RMK A01 T00571054  RH  045%=      5-min Rain = 0
KDVS 240825Z 23009KT 06/M06 A3003 RMK A01 T00581055  RH  044%=      5-min Rain = 0
KDVS 240830Z 23009KT 06/M06 A3003 RMK A01 T00581055  RH  044%=      5-min Rain = 0
KDVS 240835Z 24009KT 06/M06 A3003 RMK A01 T00571056  RH  044%=      5-min Rain = 0
KDVS 240840Z 24009KT 06/M06 A3002 RMK A01 T00601055  RH  044%=      5-min Rain = 0
KDVS 240845Z 25010KT 06/M06 A3002 RMK A01 T00631059  RH  041%=      5-min Rain = 0
KDVS 240850Z 25010KT 07/M06 A3002 RMK A01 T00691064  RH  038%=      5-min Rain = 0
KDVS 240855Z 25010KT 07/M07 A3002 RMK A01 T00741068  RH  036%=      5-min Rain = 0
KDVS 240900Z 25009KT 08/M07 A3002 RMK A01 T00771069  RH  035%=      5-min Rain = 0
KDVS 240905Z 25009KT 08/M07 A3002 RMK A01 T00781070  RH  034%=      5-min Rain = 0
KDVS 240910Z 26010KT 08/M07 A3002 RMK A01 T00801071  RH  033%=      5-min Rain = 0
KDVS 240915Z 27008KT 08/M07 A3002 RMK A01 T00831072  RH  032%=      5-min Rain = 0
KDVS 240920Z 27007KT 08/M07 A3002 RMK A01 T00801069  RH  034%=      5-min Rain = 0
KDVS 240925Z 27008KT 08/M07 A3002 RMK A01 T00771071  RH  034%=      5-min Rain = 0
KDVS 240930Z 27008KT 08/M07 A3002 RMK A01 T00791072  RH  034%=      5-min Rain = 0
KDVS 240935Z 27008KT 08/M07 A3002 RMK A01 T00811073  RH  033%=      5-min Rain = 0
KDVS 240940Z 27008KT 08/M07 A3002 RMK A01 T00801074  RH  033%=      5-min Rain = 0
KDVS 240945Z 27008KT 08/M07 A3002 RMK A01 T00781073  RH  034%=      5-min Rain = 0
KDVS 240950Z 27007KT 08/M07 A3002 RMK A01 T00751072  RH  035%=      5-min Rain = 0
KDVS 240955Z 27008KT 07/M07 A3002 RMK A01 T00711070  RH  036%=      5-min Rain = 0
KDVS 241000Z 27008KT 07/M07 A3002 RMK A01 T00701070  RH  036%=      5-min Rain = 0
KDVS 241005Z 27007KT 07/M07 A3002 RMK A01 T00691069  RH  037%=      5-min Rain = 0
KDVS 241010Z 28008KT 07/M07 A3002 RMK A01 T00651065  RH  039%=      5-min Rain = 0
KDVS 241015Z 28008KT 06/M06 A3002 RMK A01 T00611063  RH  041%=      5-min Rain = 0
KDVS 241020Z 28009KT 06/M06 A3002 RMK A01 T00611063  RH  041%=      5-min Rain = 0
KDVS 241025Z 28009KT 06/M06 A3002 RMK A01 T00621063  RH  040%=      5-min Rain = 0
KDVS 241030Z 27008KT 06/M06 A3002 RMK A01 T00641064  RH  039%=      5-min Rain = 0
KDVS 241035Z 26010KT 07/M06 A3002 RMK A01 T00661064  RH  039%=      5-min Rain = 0
KDVS 241040Z 22009KT 06/M06 A3002 RMK A01 T00641061  RH  041%=      5-min Rain = 0
KDVS 241045Z 25009KT 07/M06 A3002 RMK A01 T00671064  RH  039%=      5-min Rain = 0
KDVS 241050Z 24008KT 07/M07 A3002 RMK A01 T00731066  RH  037%=      5-min Rain = 0
KDVS 241055Z 21007KT 07/M06 A3002 RMK A01 T00701060  RH  039%=      5-min Rain = 0
KDVS 241100Z 23007KT 06/M06 A3002 RMK A01 T00611055  RH  043%=      5-min Rain = 0
KDVS 241105Z 24008KT 06/M05 A3003 RMK A01 T00591054  RH  044%=      5-min Rain = 0
KDVS 241110Z 25008KT 06/M05 A3002 RMK A01 T00591054  RH  044%=      5-min Rain = 0
KDVS 241115Z 26008KT 06/M06 A3002 RMK A01 T00611055  RH  043%=      5-min Rain = 0
KDVS 241120Z 25008KT 06/M06 A3002 RMK A01 T00641058  RH  041%=      5-min Rain = 0
KDVS 241125Z 25008KT 07/M06 A3002 RMK A01 T00671059  RH  040%=      5-min Rain = 0
KDVS 241130Z 25008KT 07/M06 A3002 RMK A01 T00671058  RH  040%=      5-min Rain = 0
KDVS 241135Z 25008KT 07/M06 A3002 RMK A01 T00681059  RH  040%=      5-min Rain = 0
KDVS 241140Z 25007KT 07/M06 A3002 RMK A01 T00691058  RH  040%=      5-min Rain = 0
KDVS 241145Z 26008KT 07/M06 A3003 RMK A01 T00691057  RH  040%=      5-min Rain = 0
KDVS 241150Z 26008KT 07/M06 A3003 RMK A01 T00681057  RH  041%=      5-min Rain = 0
KDVS 241155Z 26009KT 07/M06 A3003 RMK A01 T00681057  RH  041%=      5-min Rain = 0
KDVS 241200Z 26009KT 07/M06 A3003 RMK A01 T00691057  RH  040%=      5-min Rain = 0
KDVS 241205Z 26009KT 07/M06 A3003 RMK A01 T00711060  RH  039%=      5-min Rain = 0
KDVS 241210Z 26009KT 07/M06 A3003 RMK A01 T00711061  RH  039%=      5-min Rain = 0
KDVS 241215Z 26009KT 07/M06 A3003 RMK A01 T00721062  RH  038%=      5-min Rain = 0
KDVS 241220Z 27009KT 07/M06 A3003 RMK A01 T00741063  RH  037%=      5-min Rain = 0
KDVS 241225Z 27008KT 07/M06 A3003 RMK A01 T00731060  RH  038%=      5-min Rain = 0
KDVS 241230Z 25008KT 07/M06 A3004 RMK A01 T00691055  RH  041%=      5-min Rain = 0
KDVS 241235Z 23007KT 07/M05 A3004 RMK A01 T00661052  RH  043%=      5-min Rain = 0
KDVS 241240Z 24007KT 07/M05 A3004 RMK A01 T00661051  RH  043%=      5-min Rain = 0
KDVS 241245Z 25008KT 07/M05 A3004 RMK A01 T00701053  RH  041%=      5-min Rain = 0
KDVS 241250Z 24008KT 06/M05 A3004 RMK A01 T00641046  RH  045%=      5-min Rain = 0
KDVS 241255Z 24008KT 06/M04 A3005 RMK A01 T00591044  RH  048%=      5-min Rain = 0
KDVS 241300Z 24006KT 06/M04 A3005 RMK A01 T00571041  RH  049%=      5-min Rain = 0
KDVS 241305Z 02007KT 06/M04 A3006 RMK A01 T00551039  RH  051%=      5-min Rain = 0
KDVS 241310Z 01006KT 05/M04 A3007 RMK A01 T00541039  RH  052%=      5-min Rain = 0
KDVS 241315Z 01003KT 06/M04 A3007 RMK A01 T00551037  RH  052%=      5-min Rain = 0
KDVS 241320Z 30003KT 06/M04 A3007 RMK A01 T00581038  RH  051%=      5-min Rain = 0
KDVS 241325Z 36003KT 06/M04 A3007 RMK A01 T00591035  RH  051%=      5-min Rain = 0
KDVS 241330Z 34002KT 06/M04 A3007 RMK A01 T00591036  RH  051%=      5-min Rain = 0
KDVS 241335Z 33003KT 06/M03 A3007 RMK A01 T00601034  RH  051%=      5-min Rain = 0
KDVS 241340Z 33004KT 06/M03 A3007 RMK A01 T00621034  RH  050%=      5-min Rain = 0
KDVS 241345Z 32004KT 06/M03 A3007 RMK A01 T00631030  RH  052%=      5-min Rain = 0
KDVS 241350Z 32005KT 06/M03 A3007 RMK A01 T00641029  RH  052%=      5-min Rain = 0
KDVS 241355Z 33004KT 07/M03 A3007 RMK A01 T00661028  RH  051%=      5-min Rain = 0
KDVS 241400Z 33004KT 07/M03 A3008 RMK A01 T00711031  RH  049%=      5-min Rain = 0
KDVS 241405Z 33003KT 08/M03 A3008 RMK A01 T00761030  RH  047%=      5-min Rain = 0
KDVS 241410Z 36004KT 08/M03 A3008 RMK A01 T00841032  RH  044%=      5-min Rain = 0
KDVS 241415Z 35003KT 09/M04 A3008 RMK A01 T00931036  RH  040%=      5-min Rain = 0
KDVS 241420Z 01003KT 10/M04 A3008 RMK A01 T00971037  RH  039%=      5-min Rain = 0
KDVS 241425Z 00004KT 10/M04 A3008 RMK A01 T00981038  RH  038%=      5-min Rain = 0
KDVS 241430Z 01004KT 10/M04 A3008 RMK A01 T00981037  RH  039%=      5-min Rain = 0
KDVS 241435Z 36005KT 10/M03 A3009 RMK A01 T01001032  RH  039%=      5-min Rain = 0
KDVS 241440Z 00005KT 10/M03 A3009 RMK A01 T01041031  RH  039%=      5-min Rain = 0
KDVS 241445Z 36005KT 11/M03 A3009 RMK A01 T01061027  RH  039%=      5-min Rain = 0
KDVS 241450Z 00005KT 11/M03 A3009 RMK A01 T01101027  RH  038%=      5-min Rain = 0
KDVS 241455Z 01005KT 12/M03 A3009 RMK A01 T01161025  RH  038%=      5-min Rain = 0
KDVS 241500Z 01005KT 12/M02 A301 RMK A01 T01201024  RH  037%=      5-min Rain = 0
KDVS 241505Z 01006KT 12/M02 A301 RMK A01 T01241024  RH  036%=      5-min Rain = 0
KDVS 241510Z 02006KT 13/M02 A301 RMK A01 T01281023  RH  035%=      5-min Rain = 0
KDVS 241515Z 02006KT 13/M03 A301 RMK A01 T01321026  RH  034%=      5-min Rain = 0
KDVS 241520Z 02006KT 13/M03 A301 RMK A01 T01321029  RH  033%=      5-min Rain = 0
KDVS 241525Z 01006KT 13/M03 A301 RMK A01 T01331030  RH  032%=      5-min Rain = 0
KDVS 241530Z 35005KT 14/M03 A3011 RMK A01 T01351029  RH  032%=      5-min Rain = 0
KDVS 241535Z 35004KT 14/M03 A301 RMK A01 T01371027  RH  032%=      5-min Rain = 0
KDVS 241540Z 35006KT 14/M04 A3011 RMK A01 T01391035  RH  030%=      5-min Rain = 0
KDVS 241545Z 35006KT 14/M04 A3011 RMK A01 T01401035  RH  030%=      5-min Rain = 0
KDVS 241550Z 35006KT 14/M04 A3011 RMK A01 T01431035  RH  029%=      5-min Rain = 0
KDVS 241555Z 36005KT 15/M03 A3011 RMK A01 T01461033  RH  029%=      5-min Rain = 0
KDVS 241600Z 36005KT 15/M03 A301 RMK A01 T01451034  RH  029%=      5-min Rain = 0
KDVS 241605Z 00005KT 15/M04 A3011 RMK A01 T01461037  RH  028%=      5-min Rain = 0
KDVS 241610Z 36003KT 15/M04 A3011 RMK A01 T01501040  RH  027%=      5-min Rain = 0
KDVS 241615Z 34004KT 15/M04 A3011 RMK A01 T01521039  RH  027%=      5-min Rain = 0
KDVS 241620Z 34003KT 16/M04 A3011 RMK A01 T01551043  RH  025%=      5-min Rain = 0
KDVS 241625Z 35005KT 16/M04 A3011 RMK A01 T01551044  RH  025%=      5-min Rain = 0
KDVS 241630Z 34004G9KT 16/M04 A3011 RMK A01 T01551041  RH  026%=      5-min Rain = 0
KDVS 241635Z 00005KT 16/M04 A3011 RMK A01 T01581038  RH  026%=      5-min Rain = 0
KDVS 241640Z 36004KT 16/M04 A3011 RMK A01 T01601040  RH  025%=      5-min Rain = 0
KDVS 241645Z 01005KT 16/M04 A3011 RMK A01 T01641035  RH  026%=      5-min Rain = 0
KDVS 241650Z 01006KT 16/M04 A3011 RMK A01 T01641035  RH  025%=      5-min Rain = 0
KDVS 241655Z 34004KT 17/M03 A3011 RMK A01 T01671033  RH  025%=      5-min Rain = 0
KDVS 241700Z 34005KT 17/M03 A3011 RMK A01 T01701032  RH  025%=      5-min Rain = 0
KDVS 241705Z 35006KT 17/M03 A3011 RMK A01 T01741031  RH  025%=      5-min Rain = 0
KDVS 241710Z 35006KT 17/M03 A3011 RMK A01 T01741031  RH  025%=      5-min Rain = 0
KDVS 241715Z 34005KT 18/M03 A3011 RMK A01 T01751030  RH  025%=      5-min Rain = 0
KDVS 241720Z 34007KT 18/M03 A3011 RMK A01 T01781030  RH  024%=      5-min Rain = 0
KDVS 241725Z 32005KT 18/M03 A3011 RMK A01 T01791028  RH  024%=      5-min Rain = 0
KDVS 241730Z 32006KT 18/M03 A3011 RMK A01 T01801030  RH  024%=      5-min Rain = 0
KDVS 241735Z 35006KT 19/M02 A3011 RMK A01 T01881024  RH  024%=      5-min Rain = 0
KDVS 241740Z 34004KT 19/M03 A3011 RMK A01 T01891030  RH  023%=      5-min Rain = 0
KDVS 241745Z 30005KT 19/M03 A3011 RMK A01 T01891027  RH  023%=      5-min Rain = 0
KDVS 241750Z 28005KT 19/M03 A3011 RMK A01 T01911028  RH  023%=      5-min Rain = 0
KDVS 241755Z 30004KT 19/M03 A301 RMK A01 T01921028  RH  023%=      5-min Rain = 0
KDVS 241800Z 30003KT 19/M03 A301 RMK A01 T01931030  RH  022%=      5-min Rain = 0
KDVS 241805Z 01001KT 20/M03 A301 RMK A01 T01971029  RH  022%=      5-min Rain = 0
KDVS 241810Z 32002KT 20/M02 A301 RMK A01 T02031018  RH  023%=      5-min Rain = 0
KDVS 241815Z 32005KT 21/M02 A3009 RMK A01 T02071024  RH  021%=      5-min Rain = 0
KDVS 241820Z 29003KT 20/M02 A3009 RMK A01 T02041024  RH  021%=      5-min Rain = 0
KDVS 241825Z 28003KT 21/M03 A3009 RMK A01 T02061029  RH  021%=      5-min Rain = 0
KDVS 241830Z 27004KT 21/M04 A3009 RMK A01 T02051035  RH  020%=      5-min Rain = 0
KDVS 241835Z 27004KT 21/M03 A3009 RMK A01 T02051033  RH  020%=      5-min Rain = 0
KDVS 241840Z 28005KT 21/M03 A3009 RMK A01 T02071032  RH  020%=      5-min Rain = 0
KDVS 241845Z 28004KT 21/M03 A3009 RMK A01 T02071033  RH  020%=      5-min Rain = 0
KDVS 241850Z 28004KT 21/M04 A3009 RMK A01 T02091036  RH  019%=      5-min Rain = 0
KDVS 241855Z 27004KT 21/M04 A3008 RMK A01 T02101039  RH  019%=      5-min Rain = 0
KDVS 241900Z 24005KT 21/M04 A3008 RMK A01 T02091042  RH  018%=      5-min Rain = 0
KDVS 241905Z 24005KT 21/M05 A3008 RMK A01 T02091045  RH  018%=      5-min Rain = 0
KDVS 241910Z 25005KT 21/M04 A3008 RMK A01 T02121044  RH  018%=      5-min Rain = 0
KDVS 241915Z 28005KT 21/M05 A3008 RMK A01 T02131047  RH  017%=      5-min Rain = 0
KDVS 241920Z 26004KT 22/M05 A3008 RMK A01 T02161046  RH  017%=      5-min Rain = 0
KDVS 241925Z 26003KT 22/M05 A3007 RMK A01 T02191045  RH  017%=      5-min Rain = 0
KDVS 241930Z 22005KT 22/M05 A3007 RMK A01 T02201049  RH  016%=      5-min Rain = 0
KDVS 241935Z 20003KT 22/M05 A3007 RMK A01 T02191050  RH  016%=      5-min Rain = 0
KDVS 241940Z 23004KT 22/M05 A3007 RMK A01 T02201049  RH  016%=      5-min Rain = 0
KDVS 241945Z 22003KT 22/M06 A3006 RMK A01 T02231056  RH  015%=      5-min Rain = 0
KDVS 241950Z 18003KT 23/M06 A3006 RMK A01 T02251056  RH  015%=      5-min Rain = 0
KDVS 241955Z 24004KT 22/M06 A3006 RMK A01 T02241059  RH  015%=      5-min Rain = 0
KDVS 242000Z 28004G9KT 22/M06 A3006 RMK A01 T02221058  RH  015%=      5-min Rain = 0
KDVS 242005Z 30005KT 22/M05 A3006 RMK A01 T02221052  RH  016%=      5-min Rain = 0
KDVS 242010Z 31004KT 22/M05 A3006 RMK A01 T02241053  RH  015%=      5-min Rain = 0
KDVS 242015Z 20003KT 23/M05 A3006 RMK A01 T02271054  RH  015%=      5-min Rain = 0
KDVS 242020Z 25003KT 22/M06 A3005 RMK A01 T02241058  RH  015%=      5-min Rain = 0
KDVS 242025Z 22001KT 22/M05 A3005 RMK A01 T02231054  RH  015%=      5-min Rain = 0
KDVS 242030Z 14001KT 23/M05 A3005 RMK A01 T02271053  RH  015%=      5-min Rain = 0
KDVS 242035Z 01002KT 23/M05 A3005 RMK A01 T02321049  RH  015%=      5-min Rain = 0
KDVS 242040Z 23003KT 24/M05 A3004 RMK A01 T02371049  RH  015%=      5-min Rain = 0
KDVS 242045Z 21004KT 23/M06 A3004 RMK A01 T02341056  RH  014%=      5-min Rain = 0
KDVS 242050Z 35001KT 24/M05 A3004 RMK A01 T02361053  RH  014%=      5-min Rain = 0
KDVS 242055Z 21003G8KT 24/M05 A3004 RMK A01 T02391052  RH  014%=      5-min Rain = 0
KDVS 242100Z 16002KT 24/M05 A3004 RMK A01 T02391054  RH  014%=      5-min Rain = 0
KDVS 242105Z 17003KT 24/M06 A3004 RMK A01 T02391059  RH  013%=      5-min Rain = 0
KDVS 242110Z 20005G11KT 24/M06 A3004 RMK A01 T02421056  RH  013%=      5-min Rain = 0
KDVS 242115Z 22005G10KT 24/M06 A3004 RMK A01 T02371061  RH  013%=      5-min Rain = 0
KDVS 242120Z 21006G12KT 24/M06 A3004 RMK A01 T02371059  RH  014%=      5-min Rain = 0
KDVS 242125Z 24007KT 24/M06 A3003 RMK A01 T02381062  RH  013%=      5-min Rain = 0
KDVS 242130Z 23005KT 24/M06 A3003 RMK A01 T02401060  RH  013%=      5-min Rain = 0
KDVS 242135Z 28003G9KT 24/M06 A3003 RMK A01 T02431055  RH  013%=      5-min Rain = 0
KDVS 242140Z 34005G10KT 24/M05 A3003 RMK A01 T02431054  RH  013%=      5-min Rain = 0
KDVS 242145Z 34006KT 24/M06 A3003 RMK A01 T02401059  RH  013%=      5-min Rain = 0
KDVS 242150Z 32007G13KT 24/M06 A3003 RMK A01 T02371062  RH  013%=      5-min Rain = 0
KDVS 242155Z 33006KT 24/M06 A3003 RMK A01 T02391064  RH  013%=      5-min Rain = 0
KDVS 242200Z 32007G13KT 24/M06 A3003 RMK A01 T02391064  RH  013%=      5-min Rain = 0
KDVS 242205Z 34005G10KT 24/M07 A3003 RMK A01 T02391070  RH  012%=      5-min Rain = 0
KDVS 242210Z 31005KT 24/M07 A3003 RMK A01 T02411070  RH  012%=      5-min Rain = 0
KDVS 242215Z 27007G17KT 24/M08 A3003 RMK A01 T02401082  RH  011%=      5-min Rain = 0
KDVS 242220Z 26013G18KT 25/M09 A3003 RMK A01 T02451092  RH  010%=      5-min Rain = 0
KDVS 242225Z 27010G15KT 25/M10 A3003 RMK A01 T02451097  RH  010%=      5-min Rain = 0
KDVS 242230Z 27009G14KT 24/M10 A3003 RMK A01 T02441096  RH  010%=      5-min Rain = 0
KDVS 242235Z 28009KT 24/M10 A3003 RMK A01 T02431095  RH  010%=      5-min Rain = 0
KDVS 242240Z 28010KT 24/M10 A3003 RMK A01 T02421100  RH  009%=      5-min Rain = 0
KDVS 242245Z 27006G11KT 24/M10 A3003 RMK A01 T02431102  RH  009%=      5-min Rain = 0
KDVS 242250Z 26005KT 24/M10 A3002 RMK A01 T02431104  RH  009%=      5-min Rain = 0
KDVS 242255Z 26006G11KT 24/M10 A3002 RMK A01 T02421102  RH  009%=      5-min Rain = 0
KDVS 242300Z 25007KT 24/M10 A3003 RMK A01 T02411102  RH  009%=      5-min Rain = 0
KDVS 242305Z 28004KT 24/M10 A3003 RMK A01 T02411099  RH  010%=      5-min Rain = 0
KDVS 242310Z 28006KT 24/M09 A3003 RMK A01 T02441094  RH  010%=      5-min Rain = 0
KDVS 242315Z 28007KT 24/M10 A3003 RMK A01 T02431101  RH  009%=      5-min Rain = 0
KDVS 242320Z 28007KT 24/M10 A3003 RMK A01 T02411096  RH  010%=      5-min Rain = 0
KDVS 242325Z 30003KT 24/M10 A3003 RMK A01 T02411103  RH  009%=      5-min Rain = 0
KDVS 242330Z 25002KT 24/M10 A3003 RMK A01 T02421104  RH  009%=      5-min Rain = 0
KDVS 242335Z 28003KT 24/M10 A3003 RMK A01 T02441099  RH  009%=      5-min Rain = 0
KDVS 242340Z 30007KT 24/M10 A3003 RMK A01 T02431095  RH  010%=      5-min Rain = 0
KDVS 242345Z 29007KT 24/M10 A3003 RMK A01 T02401095  RH  010%=      5-min Rain = 0
KDVS 242350Z 29007KT 24/M10 A3003 RMK A01 T02381098  RH  010%=      5-min Rain = 0
KDVS 242355Z 30005KT 24/M10 A3003 RMK A01 T02381096  RH  010%=      5-min Rain = 0
KDVS 250000Z 31005KT 24/M10 A3003 RMK A01 T02381096  RH  010%=      5-min Rain = 0
KDVS 250005Z 29005KT 24/M09 A3003 RMK A01 T02371094  RH  010%=      5-min Rain = 0
KDVS 250010Z 24005KT 24/M09 A3003 RMK A01 T02361094  RH  010%=      5-min Rain = 0
KDVS 250015Z 25004KT 24/M09 A3003 RMK A01 T02351093  RH  010%=      5-min Rain = 0
KDVS 250020Z 26003KT 24/M09 A3004 RMK A01 T02351091  RH  011%=      5-min Rain = 0
KDVS 250025Z 25003KT 23/M09 A3004 RMK A01 T02341086  RH  011%=      5-min Rain = 0
KDVS 250030Z 27005KT 23/M08 A3004 RMK A01 T02311083  RH  012%=      5-min Rain = 0
KDVS 250035Z 27004KT 23/M07 A3004 RMK A01 T02251070  RH  013%=      5-min Rain = 0
KDVS 250040Z 28003KT 22/M07 A3004 RMK A01 T02211069  RH  014%=      5-min Rain = 0
KDVS 250045Z 29003KT 22/M07 A3004 RMK A01 T02181069  RH  014%=      5-min Rain = 0
KDVS 250050Z 29004KT 21/M07 A3004 RMK A01 T02131068  RH  014%=      5-min Rain = 0
KDVS 250055Z 29004KT 21/M07 A3004 RMK A01 T02081072  RH  015%=      5-min Rain = 0
KDVS 250100Z 29004KT 20/M07 A3004 RMK A01 T02031074  RH  015%=      5-min Rain = 0
KDVS 250105Z 30004KT 20/M07 A3004 RMK A01 T01981067  RH  016%=      5-min Rain = 0
KDVS 250110Z 31005KT 19/M06 A3005 RMK A01 T01911063  RH  017%=      5-min Rain = 0
KDVS 250115Z 33005KT 19/M07 A3005 RMK A01 T01881067  RH  017%=      5-min Rain = 0
KDVS 250120Z 33004KT 19/M06 A3005 RMK A01 T01861060  RH  018%=      5-min Rain = 0
KDVS 250125Z 33005KT 18/M06 A3005 RMK A01 T01821063  RH  018%=      5-min Rain = 0
KDVS 250130Z 34004KT 19/M08 A3005 RMK A01 T01871075  RH  016%=      5-min Rain = 0
KDVS 250135Z 34003KT 18/M06 A3006 RMK A01 T01831060  RH  019%=      5-min Rain = 0
KDVS 250140Z 35004KT 18/M06 A3006 RMK A01 T01781059  RH  019%=      5-min Rain = 0
KDVS 250145Z 35004KT 18/M06 A3006 RMK A01 T01771060  RH  019%=      5-min Rain = 0
KDVS 250150Z 34004KT 17/M06 A3006 RMK A01 T01741058  RH  020%=      5-min Rain = 0
KDVS 250155Z 34005KT 17/M06 A3006 RMK A01 T01681056  RH  021%=      5-min Rain = 0
KDVS 250200Z 34005KT 16/M05 A3007 RMK A01 T01611052  RH  023%=      5-min Rain = 0
KDVS 250205Z 34006KT 16/M05 A3007 RMK A01 T01551050  RH  024%=      5-min Rain = 0
KDVS 250210Z 34007KT 15/M05 A3007 RMK A01 T01481048  RH  026%=      5-min Rain = 0
KDVS 250215Z 34007KT 14/M05 A3007 RMK A01 T01441050  RH  026%=      5-min Rain = 0
KDVS 250220Z 34006KT 14/M05 A3008 RMK A01 T01441051  RH  026%=      5-min Rain = 0
KDVS 250225Z 34006KT 14/M05 A3008 RMK A01 T01411048  RH  027%=      5-min Rain = 0
KDVS 250230Z 34007KT 14/M05 A3008 RMK A01 T01361048  RH  028%=      5-min Rain = 0
KDVS 250235Z 34008KT 13/M05 A3008 RMK A01 T01331047  RH  028%=      5-min Rain = 0
KDVS 250240Z 34007KT 13/M04 A3009 RMK A01 T01281044  RH  030%=      5-min Rain = 0
KDVS 250245Z 34007KT 13/M04 A3009 RMK A01 T01261043  RH  031%=      5-min Rain = 0
KDVS 250250Z 34007KT 13/M05 A3009 RMK A01 T01271047  RH  030%=      5-min Rain = 0
KDVS 250255Z 34007KT 13/M05 A3009 RMK A01 T01271046  RH  030%=      5-min Rain = 0
KDVS 250300Z 34007KT 13/M05 A3009 RMK A01 T01251047  RH  030%=      5-min Rain = 0
KDVS 250305Z 34007KT 13/M05 A301 RMK A01 T01261047  RH  030%=      5-min Rain = 0
KDVS 250310Z 34007KT 13/M05 A301 RMK A01 T01261048  RH  030%=      5-min Rain = 0
KDVS 250315Z 34007KT 13/M05 A301 RMK A01 T01251048  RH  030%=      5-min Rain = 0
KDVS 250320Z 34007KT 12/M05 A301 RMK A01 T01241048  RH  030%=      5-min Rain = 0
KDVS 250325Z 34007KT 12/M05 A301 RMK A01 T01241049  RH  030%=      5-min Rain = 0
KDVS 250330Z 34006KT 13/M05 A301 RMK A01 T01261052  RH  029%=      5-min Rain = 0
KDVS 250335Z 33007KT 13/M05 A3011 RMK A01 T01281054  RH  028%=      5-min Rain = 0
KDVS 250340Z 33007KT 13/M06 A3011 RMK A01 T01311056  RH  027%=      5-min Rain = 0
KDVS 250345Z 33006KT 13/M06 A3011 RMK A01 T01291055  RH  027%=      5-min Rain = 0
KDVS 250350Z 33005KT 13/M06 A3011 RMK A01 T01291058  RH  027%=      5-min Rain = 0
KDVS 250355Z 33005KT 13/M06 A3011 RMK A01 T01311057  RH  027%=      5-min Rain = 0
KDVS 250400Z 32005KT 13/M05 A3012 RMK A01 T01261053  RH  028%=      5-min Rain = 0
KDVS 250405Z 32003KT 12/M05 A3012 RMK A01 T01161046  RH  032%=      5-min Rain = 0
KDVS 250410Z 32004KT 10/M04 A3012 RMK A01 T01041041  RH  036%=      5-min Rain = 0
KDVS 250415Z 32004KT 10/M04 A3012 RMK A01 T01001040  RH  037%=      5-min Rain = 0
KDVS 250420Z 32005KT 11/M05 A3012 RMK A01 T01071049  RH  033%=      5-min Rain = 0
KDVS 250425Z 32005KT 12/M05 A3012 RMK A01 T01151050  RH  031%=      5-min Rain = 0
KDVS 250430Z 32005KT 12/M05 A3012 RMK A01 T01211051  RH  030%=      5-min Rain = 0
KDVS 250435Z 32006G11KT 12/M04 A3012 RMK A01 T01221044  RH  031%=      5-min Rain = 0
KDVS 250440Z 33007KT 12/M04 A3013 RMK A01 T01151039  RH  034%=      5-min Rain = 0
KDVS 250445Z 31006KT 10/M03 A3013 RMK A01 T01031034  RH  038%=      5-min Rain = 0
KDVS 250450Z 30007KT 11/M05 A3013 RMK A01 T01051045  RH  035%=      5-min Rain = 0
KDVS 250455Z 31006KT 11/M04 A3013 RMK A01 T01061043  RH  035%=      5-min Rain = 0

Page generated in 0.0093 seconds.